Norman Y. Mineta San Jose International Airport San Jose US
ICAO: KSJC
IATA: SJC
Category: Large
Scheduled Services: Yes

Elevation: 62 ft
TransAlt. 18000 ft.

Airport Communications:
NORCAL APP:33.82
NORCAL APP:120.1
ATIS:126.95
CLNC DEL:118
CTAF:124
NORCAL DEP:121.3
GND:121.7
TWR:124

KSJC Zoom In..

If you have problems with the map follow the link
https://www.worldairports.se/pages/airport.php?
ICAO=KSJC

Runways:

(A) RW 11 length 4599 ft width 100 ft
---- / hdg 123

(B) RW 12L length 11000 ft width 150 ft
---- / hdg 123

(C) RW 12R length 11000 ft width 150 ft
ILS 110.90 / hdg 123

(D) RW 29 length 4599 ft width 100 ft
---- / hdg 303

(E) RW 30L length 11000 ft width 150 ft
ILS 110.90 / hdg 303

(F) RW 30R length 11000 ft width 150 ft
---- / hdg 303

Location; KSJC
Day. 08 / Time. 16.53 Zulu
* Altimeter: 30.02
* Temperature: 14° c. 57.2°f.
* Wind from: 360° Speed 04 kn.
Dewpoint: 12° c.
Visibility: 10 Statute Miles.
Clouds: Few 100 ft.
Clouds: Scattered 600 ft.
Clouds: Broken 3600 ft.

KSJC 081653Z 36004KT 10SM FEW001 SCT006 BKN036 14/12 A3002 RMK AO2 RAE17 SLP164 P0000 T01390122 $


Wind From 360°
Speed 04 kn.

 
 
jpsmedia worldairports.se 2019   terms of use